sensor_id;sensor_type;location;lat;lon;timestamp;P1;durP1;ratioP1;P2;durP2;ratioP2
19965;SDS011;10144;50.874;4.762;2022-11-15T00:01:30;39.30;;;18.27;;
19965;SDS011;10144;50.874;4.762;2022-11-15T00:03:55;39.17;;;16.90;;
19965;SDS011;10144;50.874;4.762;2022-11-15T00:06:21;41.30;;;17.77;;
19965;SDS011;10144;50.874;4.762;2022-11-15T00:08:46;41.00;;;17.83;;
19965;SDS011;10144;50.874;4.762;2022-11-15T00:11:12;42.90;;;17.90;;
19965;SDS011;10144;50.874;4.762;2022-11-15T00:13:38;40.47;;;17.77;;
19965;SDS011;10144;50.874;4.762;2022-11-15T00:16:04;45.80;;;18.33;;
19965;SDS011;10144;50.874;4.762;2022-11-15T00:18:30;41.67;;;17.60;;
19965;SDS011;10144;50.874;4.762;2022-11-15T00:21:02;44.00;;;17.87;;
19965;SDS011;10144;50.874;4.762;2022-11-15T00:23:30;43.90;;;17.90;;
19965;SDS011;10144;50.874;4.762;2022-11-15T00:25:56;41.17;;;18.10;;
19965;SDS011;10144;50.874;4.762;2022-11-15T00:28:24;38.27;;;17.20;;
19965;SDS011;10144;50.874;4.762;2022-11-15T00:30:50;40.13;;;17.07;;
19965;SDS011;10144;50.874;4.762;2022-11-15T00:33:17;37.37;;;17.57;;
19965;SDS011;10144;50.874;4.762;2022-11-15T00:35:45;40.37;;;17.53;;
19965;SDS011;10144;50.874;4.762;2022-11-15T00:38:10;37.07;;;17.23;;
19965;SDS011;10144;50.874;4.762;2022-11-15T00:40:36;41.90;;;17.73;;
19965;SDS011;10144;50.874;4.762;2022-11-15T00:43:02;38.40;;;17.60;;
19965;SDS011;10144;50.874;4.762;2022-11-15T00:45:27;37.60;;;18.17;;
19965;SDS011;10144;50.874;4.762;2022-11-15T00:47:53;38.17;;;17.63;;
19965;SDS011;10144;50.874;4.762;2022-11-15T00:50:18;38.97;;;18.03;;
19965;SDS011;10144;50.874;4.762;2022-11-15T00:52:44;37.57;;;17.37;;
19965;SDS011;10144;50.874;4.762;2022-11-15T00:55:13;41.93;;;17.97;;
19965;SDS011;10144;50.874;4.762;2022-11-15T00:57:40;39.70;;;16.50;;
19965;SDS011;10144;50.874;4.762;2022-11-15T01:00:06;37.43;;;18.00;;
19965;SDS011;10144;50.874;4.762;2022-11-15T01:02:32;43.63;;;18.00;;
19965;SDS011;10144;50.874;4.762;2022-11-15T01:04:58;37.77;;;16.93;;
19965;SDS011;10144;50.874;4.762;2022-11-15T01:07:23;42.00;;;17.47;;
19965;SDS011;10144;50.874;4.762;2022-11-15T01:09:49;39.10;;;16.67;;
19965;SDS011;10144;50.874;4.762;2022-11-15T01:12:16;40.57;;;17.70;;
19965;SDS011;10144;50.874;4.762;2022-11-15T01:14:41;35.93;;;16.90;;
19965;SDS011;10144;50.874;4.762;2022-11-15T01:17:07;37.87;;;16.73;;
19965;SDS011;10144;50.874;4.762;2022-11-15T01:19:32;35.43;;;17.23;;
19965;SDS011;10144;50.874;4.762;2022-11-15T01:21:58;40.33;;;18.00;;
19965;SDS011;10144;50.874;4.762;2022-11-15T01:24:24;38.37;;;16.97;;
19965;SDS011;10144;50.874;4.762;2022-11-15T01:26:52;39.83;;;16.67;;
19965;SDS011;10144;50.874;4.762;2022-11-15T01:29:17;39.63;;;17.10;;
19965;SDS011;10144;50.874;4.762;2022-11-15T01:31:44;45.33;;;17.53;;
19965;SDS011;10144;50.874;4.762;2022-11-15T01:34:11;32.90;;;16.60;;
19965;SDS011;10144;50.874;4.762;2022-11-15T01:36:37;40.57;;;17.97;;
19965;SDS011;10144;50.874;4.762;2022-11-15T01:39:03;38.13;;;17.60;;
19965;SDS011;10144;50.874;4.762;2022-11-15T01:41:30;40.50;;;18.20;;
19965;SDS011;10144;50.874;4.762;2022-11-15T01:44:31;43.07;;;17.73;;
19965;SDS011;10144;50.874;4.762;2022-11-15T01:46:55;40.93;;;17.70;;
19965;SDS011;10144;50.874;4.762;2022-11-15T01:49:21;43.60;;;18.80;;
19965;SDS011;10144;50.874;4.762;2022-11-15T01:51:48;49.50;;;19.17;;
19965;SDS011;10144;50.874;4.762;2022-11-15T01:54:15;44.97;;;19.43;;
19965;SDS011;10144;50.874;4.762;2022-11-15T01:56:45;46.33;;;19.43;;
19965;SDS011;10144;50.874;4.762;2022-11-15T01:59:18;42.93;;;19.40;;
19965;SDS011;10144;50.874;4.762;2022-11-15T02:01:44;42.30;;;19.27;;
19965;SDS011;10144;50.874;4.762;2022-11-15T02:06:45;45.57;;;18.93;;
19965;SDS011;10144;50.874;4.762;2022-11-15T02:09:13;47.60;;;19.47;;
19965;SDS011;10144;50.874;4.762;2022-11-15T02:11:38;45.87;;;19.50;;
19965;SDS011;10144;50.874;4.762;2022-11-15T02:14:04;42.60;;;19.70;;
19965;SDS011;10144;50.874;4.762;2022-11-15T02:16:44;44.47;;;19.33;;
19965;SDS011;10144;50.874;4.762;2022-11-15T02:39:33;45.00;;;18.65;;
19965;SDS011;10144;50.874;4.762;2022-11-15T02:42:07;39.43;;;18.23;;
19965;SDS011;10144;50.874;4.762;2022-11-15T02:45:03;37.43;;;17.70;;
19965;SDS011;10144;50.874;4.762;2022-11-15T02:47:32;43.85;;;17.88;;
19965;SDS011;10144;50.874;4.762;2022-11-15T02:50:05;42.03;;;18.57;;
19965;SDS011;10144;50.874;4.762;2022-11-15T02:52:34;38.13;;;17.90;;
19965;SDS011;10144;50.874;4.762;2022-11-15T02:55:00;39.00;;;18.30;;
19965;SDS011;10144;50.874;4.762;2022-11-15T03:00:18;39.63;;;18.00;;
19965;SDS011;10144;50.874;4.762;2022-11-15T03:03:02;42.45;;;17.55;;
19965;SDS011;10144;50.874;4.762;2022-11-15T03:06:04;43.47;;;17.40;;
19965;SDS011;10144;50.874;4.762;2022-11-15T03:09:03;39.65;;;18.05;;
19965;SDS011;10144;50.874;4.762;2022-11-15T03:11:35;40.30;;;17.83;;
19965;SDS011;10144;50.874;4.762;2022-11-15T03:22:08;43.30;;;19.08;;
19965;SDS011;10144;50.874;4.762;2022-11-15T03:24:37;40.95;;;17.95;;
19965;SDS011;10144;50.874;4.762;2022-11-15T03:27:05;43.27;;;18.80;;
19965;SDS011;10144;50.874;4.762;2022-11-15T03:29:35;40.93;;;18.00;;
19965;SDS011;10144;50.874;4.762;2022-11-15T03:32:05;41.13;;;18.38;;
19965;SDS011;10144;50.874;4.762;2022-11-15T03:34:40;44.53;;;19.47;;
19965;SDS011;10144;50.874;4.762;2022-11-15T03:39:42;44.13;;;19.00;;
19965;SDS011;10144;50.874;4.762;2022-11-15T03:47:33;45.53;;;18.77;;
19965;SDS011;10144;50.874;4.762;2022-11-15T03:50:13;42.07;;;19.27;;
19965;SDS011;10144;50.874;4.762;2022-11-15T03:52:47;50.37;;;19.27;;
19965;SDS011;10144;50.874;4.762;2022-11-15T03:55:18;45.70;;;19.10;;
19965;SDS011;10144;50.874;4.762;2022-11-15T03:57:47;32.57;;;16.17;;
19965;SDS011;10144;50.874;4.762;2022-11-15T04:00:15;39.40;;;16.97;;
19965;SDS011;10144;50.874;4.762;2022-11-15T04:02:42;41.97;;;17.60;;
19965;SDS011;10144;50.874;4.762;2022-11-15T04:05:07;43.33;;;18.20;;
19965;SDS011;10144;50.874;4.762;2022-11-15T04:07:36;35.73;;;17.20;;
19965;SDS011;10144;50.874;4.762;2022-11-15T04:10:02;39.77;;;17.43;;
19965;SDS011;10144;50.874;4.762;2022-11-15T04:12:30;37.90;;;16.60;;
19965;SDS011;10144;50.874;4.762;2022-11-15T04:15:04;39.77;;;15.70;;
19965;SDS011;10144;50.874;4.762;2022-11-15T04:17:43;35.07;;;15.73;;
19965;SDS011;10144;50.874;4.762;2022-11-15T04:20:15;34.27;;;15.77;;
19965;SDS011;10144;50.874;4.762;2022-11-15T04:26:00;35.00;;;15.57;;
19965;SDS011;10144;50.874;4.762;2022-11-15T04:28:27;31.40;;;14.00;;
19965;SDS011;10144;50.874;4.762;2022-11-15T04:30:53;35.03;;;14.93;;
19965;SDS011;10144;50.874;4.762;2022-11-15T04:33:18;36.47;;;14.40;;
19965;SDS011;10144;50.874;4.762;2022-11-15T04:35:45;40.53;;;14.83;;
19965;SDS011;10144;50.874;4.762;2022-11-15T04:38:30;31.30;;;13.97;;
19965;SDS011;10144;50.874;4.762;2022-11-15T04:40:56;33.93;;;12.80;;
19965;SDS011;10144;50.874;4.762;2022-11-15T04:43:22;32.83;;;13.37;;
19965;SDS011;10144;50.874;4.762;2022-11-15T04:45:47;31.37;;;12.70;;
19965;SDS011;10144;50.874;4.762;2022-11-15T04:48:13;26.43;;;12.97;;
19965;SDS011;10144;50.874;4.762;2022-11-15T04:50:38;29.43;;;12.10;;
19965;SDS011;10144;50.874;4.762;2022-11-15T04:53:04;24.93;;;11.37;;
19965;SDS011;10144;50.874;4.762;2022-11-15T04:55:30;24.57;;;11.23;;
19965;SDS011;10144;50.874;4.762;2022-11-15T04:57:58;25.67;;;10.67;;
19965;SDS011;10144;50.874;4.762;2022-11-15T05:00:25;21.60;;;10.63;;
19965;SDS011;10144;50.874;4.762;2022-11-15T05:02:51;21.20;;;10.27;;
19965;SDS011;10144;50.874;4.762;2022-11-15T05:05:35;23.13;;;10.40;;
19965;SDS011;10144;50.874;4.762;2022-11-15T05:08:02;20.93;;;9.90;;
19965;SDS011;10144;50.874;4.762;2022-11-15T05:10:28;28.47;;;10.10;;
19965;SDS011;10144;50.874;4.762;2022-11-15T05:12:53;25.70;;;9.93;;
19965;SDS011;10144;50.874;4.762;2022-11-15T05:15:19;23.67;;;10.07;;
19965;SDS011;10144;50.874;4.762;2022-11-15T05:17:44;23.57;;;10.80;;
19965;SDS011;10144;50.874;4.762;2022-11-15T05:20:10;32.73;;;10.97;;
19965;SDS011;10144;50.874;4.762;2022-11-15T05:22:37;22.57;;;10.67;;
19965;SDS011;10144;50.874;4.762;2022-11-15T05:25:04;23.67;;;10.40;;
19965;SDS011;10144;50.874;4.762;2022-11-15T05:27:30;25.73;;;10.80;;
19965;SDS011;10144;50.874;4.762;2022-11-15T05:29:56;24.20;;;9.67;;
19965;SDS011;10144;50.874;4.762;2022-11-15T05:32:21;25.33;;;10.07;;
19965;SDS011;10144;50.874;4.762;2022-11-15T05:34:47;25.40;;;10.40;;
19965;SDS011;10144;50.874;4.762;2022-11-15T05:37:14;25.47;;;10.50;;
19965;SDS011;10144;50.874;4.762;2022-11-15T05:39:40;30.70;;;10.33;;
19965;SDS011;10144;50.874;4.762;2022-11-15T05:42:08;26.83;;;10.53;;
19965;SDS011;10144;50.874;4.762;2022-11-15T05:44:36;24.63;;;10.10;;
19965;SDS011;10144;50.874;4.762;2022-11-15T05:47:04;25.90;;;10.30;;
19965;SDS011;10144;50.874;4.762;2022-11-15T05:49:36;21.40;;;9.23;;
19965;SDS011;10144;50.874;4.762;2022-11-15T05:52:05;31.60;;;9.87;;
19965;SDS011;10144;50.874;4.762;2022-11-15T05:54:34;24.87;;;9.83;;
19965;SDS011;10144;50.874;4.762;2022-11-15T05:59:31;21.37;;;9.67;;
19965;SDS011;10144;50.874;4.762;2022-11-15T06:01:57;23.40;;;9.67;;
19965;SDS011;10144;50.874;4.762;2022-11-15T06:04:23;23.13;;;10.17;;
19965;SDS011;10144;50.874;4.762;2022-11-15T06:06:49;20.63;;;9.03;;
19965;SDS011;10144;50.874;4.762;2022-11-15T06:09:14;26.33;;;9.87;;
19965;SDS011;10144;50.874;4.762;2022-11-15T06:11:40;21.10;;;9.23;;
19965;SDS011;10144;50.874;4.762;2022-11-15T06:14:06;22.80;;;9.57;;
19965;SDS011;10144;50.874;4.762;2022-11-15T06:16:31;22.53;;;9.50;;
19965;SDS011;10144;50.874;4.762;2022-11-15T06:18:57;22.10;;;9.93;;
19965;SDS011;10144;50.874;4.762;2022-11-15T06:21:23;26.80;;;10.03;;
19965;SDS011;10144;50.874;4.762;2022-11-15T06:23:48;26.70;;;11.10;;
19965;SDS011;10144;50.874;4.762;2022-11-15T06:26:14;21.47;;;10.53;;
19965;SDS011;10144;50.874;4.762;2022-11-15T06:28:40;23.50;;;10.10;;
19965;SDS011;10144;50.874;4.762;2022-11-15T06:31:07;25.23;;;10.30;;
19965;SDS011;10144;50.874;4.762;2022-11-15T06:33:34;27.20;;;10.70;;
19965;SDS011;10144;50.874;4.762;2022-11-15T06:36:02;27.53;;;10.07;;
19965;SDS011;10144;50.874;4.762;2022-11-15T06:38:29;23.87;;;10.13;;
19965;SDS011;10144;50.874;4.762;2022-11-15T06:40:55;28.90;;;10.40;;
19965;SDS011;10144;50.874;4.762;2022-11-15T06:43:25;26.83;;;10.60;;
19965;SDS011;10144;50.874;4.762;2022-11-15T06:45:51;25.67;;;10.43;;
19965;SDS011;10144;50.874;4.762;2022-11-15T06:48:16;21.10;;;9.90;;
19965;SDS011;10144;50.874;4.762;2022-11-15T06:50:49;21.03;;;10.27;;
19965;SDS011;10144;50.874;4.762;2022-11-15T06:53:22;24.93;;;10.23;;
19965;SDS011;10144;50.874;4.762;2022-11-15T06:55:49;21.93;;;10.30;;
19965;SDS011;10144;50.874;4.762;2022-11-15T06:58:14;21.93;;;10.23;;
19965;SDS011;10144;50.874;4.762;2022-11-15T07:00:40;25.97;;;9.40;;
19965;SDS011;10144;50.874;4.762;2022-11-15T07:03:06;25.17;;;10.33;;
19965;SDS011;10144;50.874;4.762;2022-11-15T07:05:32;20.83;;;9.60;;
19965;SDS011;10144;50.874;4.762;2022-11-15T07:07:58;22.67;;;9.43;;
19965;SDS011;10144;50.874;4.762;2022-11-15T07:10:24;26.40;;;10.40;;
19965;SDS011;10144;50.874;4.762;2022-11-15T07:12:51;21.60;;;9.00;;
19965;SDS011;10144;50.874;4.762;2022-11-15T07:15:18;20.17;;;9.43;;
19965;SDS011;10144;50.874;4.762;2022-11-15T07:17:45;19.83;;;9.17;;
19965;SDS011;10144;50.874;4.762;2022-11-15T07:20:11;18.93;;;8.40;;
19965;SDS011;10144;50.874;4.762;2022-11-15T07:22:41;23.90;;;8.60;;
19965;SDS011;10144;50.874;4.762;2022-11-15T07:25:06;17.10;;;7.77;;
19965;SDS011;10144;50.874;4.762;2022-11-15T07:27:33;21.43;;;7.73;;
19965;SDS011;10144;50.874;4.762;2022-11-15T07:29:59;22.33;;;8.10;;
19965;SDS011;10144;50.874;4.762;2022-11-15T07:32:25;17.43;;;7.27;;
19965;SDS011;10144;50.874;4.762;2022-11-15T07:34:51;17.70;;;7.30;;
19965;SDS011;10144;50.874;4.762;2022-11-15T07:37:16;15.13;;;6.50;;
19965;SDS011;10144;50.874;4.762;2022-11-15T07:39:42;19.93;;;8.27;;
19965;SDS011;10144;50.874;4.762;2022-11-15T07:42:08;22.93;;;11.00;;
19965;SDS011;10144;50.874;4.762;2022-11-15T07:44:53;16.30;;;7.27;;
19965;SDS011;10144;50.874;4.762;2022-11-15T07:47:19;22.30;;;7.50;;
19965;SDS011;10144;50.874;4.762;2022-11-15T07:49:45;11.13;;;6.43;;
19965;SDS011;10144;50.874;4.762;2022-11-15T07:52:11;13.53;;;7.17;;
19965;SDS011;10144;50.874;4.762;2022-11-15T07:54:38;14.73;;;6.80;;
19965;SDS011;10144;50.874;4.762;2022-11-15T07:57:04;13.30;;;6.27;;
19965;SDS011;10144;50.874;4.762;2022-11-15T07:59:30;16.43;;;6.80;;
19965;SDS011;10144;50.874;4.762;2022-11-15T08:01:56;14.70;;;6.40;;
19965;SDS011;10144;50.874;4.762;2022-11-15T08:04:22;10.70;;;5.30;;
19965;SDS011;10144;50.874;4.762;2022-11-15T08:06:47;11.07;;;4.53;;
19965;SDS011;10144;50.874;4.762;2022-11-15T08:09:13;13.60;;;4.70;;
19965;SDS011;10144;50.874;4.762;2022-11-15T08:11:38;9.33;;;4.00;;
19965;SDS011;10144;50.874;4.762;2022-11-15T08:14:04;8.00;;;3.40;;
19965;SDS011;10144;50.874;4.762;2022-11-15T08:16:30;10.60;;;3.33;;
19965;SDS011;10144;50.874;4.762;2022-11-15T08:18:55;7.87;;;3.23;;
19965;SDS011;10144;50.874;4.762;2022-11-15T08:21:21;6.03;;;2.47;;
19965;SDS011;10144;50.874;4.762;2022-11-15T08:23:47;6.65;;;2.35;;
19965;SDS011;10144;50.874;4.762;2022-11-15T08:26:13;7.15;;;2.20;;
19965;SDS011;10144;50.874;4.762;2022-11-15T08:28:39;5.60;;;1.95;;
19965;SDS011;10144;50.874;4.762;2022-11-15T08:31:05;7.63;;;3.22;;
19965;SDS011;10144;50.874;4.762;2022-11-15T08:33:32;6.65;;;1.70;;
19965;SDS011;10144;50.874;4.762;2022-11-15T08:36:01;5.07;;;1.85;;
19965;SDS011;10144;50.874;4.762;2022-11-15T08:38:27;5.07;;;1.67;;
19965;SDS011;10144;50.874;4.762;2022-11-15T08:40:58;4.80;;;1.67;;
19965;SDS011;10144;50.874;4.762;2022-11-15T08:43:26;10.85;;;1.70;;
19965;SDS011;10144;50.874;4.762;2022-11-15T08:45:55;6.00;;;1.50;;
19965;SDS011;10144;50.874;4.762;2022-11-15T08:48:21;4.93;;;1.40;;
19965;SDS011;10144;50.874;4.762;2022-11-15T08:50:47;6.80;;;1.33;;
19965;SDS011;10144;50.874;4.762;2022-11-15T08:53:12;4.75;;;1.45;;
19965;SDS011;10144;50.874;4.762;2022-11-15T08:55:38;4.03;;;1.40;;
19965;SDS011;10144;50.874;4.762;2022-11-15T08:58:05;3.88;;;1.17;;
19965;SDS011;10144;50.874;4.762;2022-11-15T09:00:31;5.30;;;1.40;;
19965;SDS011;10144;50.874;4.762;2022-11-15T09:02:57;6.23;;;1.53;;
19965;SDS011;10144;50.874;4.762;2022-11-15T09:05:22;7.53;;;1.60;;
19965;SDS011;10144;50.874;4.762;2022-11-15T09:07:52;7.50;;;1.87;;
19965;SDS011;10144;50.874;4.762;2022-11-15T09:10:19;5.63;;;1.50;;
19965;SDS011;10144;50.874;4.762;2022-11-15T09:12:45;6.53;;;1.70;;
19965;SDS011;10144;50.874;4.762;2022-11-15T09:15:14;6.67;;;1.60;;
19965;SDS011;10144;50.874;4.762;2022-11-15T09:17:42;4.67;;;1.30;;
19965;SDS011;10144;50.874;4.762;2022-11-15T09:20:08;4.17;;;1.27;;
19965;SDS011;10144;50.874;4.762;2022-11-15T09:22:34;6.30;;;1.40;;
19965;SDS011;10144;50.874;4.762;2022-11-15T09:25:01;3.05;;;1.27;;
19965;SDS011;10144;50.874;4.762;2022-11-15T09:27:28;3.70;;;1.20;;
19965;SDS011;10144;50.874;4.762;2022-11-15T09:29:55;9.27;;;1.63;;
19965;SDS011;10144;50.874;4.762;2022-11-15T09:32:21;5.20;;;1.30;;
19965;SDS011;10144;50.874;4.762;2022-11-15T09:34:48;6.97;;;1.50;;
19965;SDS011;10144;50.874;4.762;2022-11-15T09:37:14;6.43;;;1.50;;
19965;SDS011;10144;50.874;4.762;2022-11-15T09:39:40;6.28;;;1.40;;
19965;SDS011;10144;50.874;4.762;2022-11-15T09:44:59;8.05;;;1.30;;
19965;SDS011;10144;50.874;4.762;2022-11-15T09:48:03;4.93;;;1.20;;
19965;SDS011;10144;50.874;4.762;2022-11-15T09:50:38;5.97;;;1.38;;
19965;SDS011;10144;50.874;4.762;2022-11-15T09:53:10;6.57;;;1.20;;
19965;SDS011;10144;50.874;4.762;2022-11-15T09:55:51;7.53;;;1.55;;
19965;SDS011;10144;50.874;4.762;2022-11-15T09:58:39;12.65;;;2.35;;
19965;SDS011;10144;50.874;4.762;2022-11-15T10:01:12;3.38;;;1.00;;
19965;SDS011;10144;50.874;4.762;2022-11-15T10:03:44;7.43;;;1.50;;
19965;SDS011;10144;50.874;4.762;2022-11-15T10:06:15;5.20;;;1.10;;
19965;SDS011;10144;50.874;4.762;2022-11-15T10:08:55;5.00;;;1.20;;
19965;SDS011;10144;50.874;4.762;2022-11-15T10:11:32;5.20;;;1.10;;
19965;SDS011;10144;50.874;4.762;2022-11-15T10:14:10;3.95;;;1.20;;
19965;SDS011;10144;50.874;4.762;2022-11-15T10:17:06;4.68;;;1.48;;
19965;SDS011;10144;50.874;4.762;2022-11-15T10:22:38;7.25;;;1.17;;
19965;SDS011;10144;50.874;4.762;2022-11-15T10:25:15;10.18;;;1.63;;
19965;SDS011;10144;50.874;4.762;2022-11-15T10:27:54;6.43;;;1.27;;
19965;SDS011;10144;50.874;4.762;2022-11-15T10:30:23;5.30;;;1.30;;
19965;SDS011;10144;50.874;4.762;2022-11-15T10:32:56;3.90;;;1.02;;
19965;SDS011;10144;50.874;4.762;2022-11-15T10:35:26;4.57;;;1.05;;
19965;SDS011;10144;50.874;4.762;2022-11-15T10:38:09;6.45;;;1.33;;
19965;SDS011;10144;50.874;4.762;2022-11-15T10:40:36;3.10;;;1.00;;
19965;SDS011;10144;50.874;4.762;2022-11-15T10:43:18;7.50;;;1.48;;
19965;SDS011;10144;50.874;4.762;2022-11-15T10:45:44;6.93;;;1.25;;
19965;SDS011;10144;50.874;4.762;2022-11-15T10:50:36;8.50;;;1.45;;
19965;SDS011;10144;50.874;4.762;2022-11-15T10:53:03;5.75;;;1.35;;
19965;SDS011;10144;50.874;4.762;2022-11-15T10:55:30;7.05;;;1.45;;
19965;SDS011;10144;50.874;4.762;2022-11-15T10:58:02;6.13;;;1.33;;
19965;SDS011;10144;50.874;4.762;2022-11-15T11:00:33;10.43;;;1.40;;
19965;SDS011;10144;50.874;4.762;2022-11-15T11:03:05;7.78;;;1.52;;
19965;SDS011;10144;50.874;4.762;2022-11-15T11:05:46;6.80;;;1.30;;
19965;SDS011;10144;50.874;4.762;2022-11-15T11:10:42;4.82;;;1.45;;
19965;SDS011;10144;50.874;4.762;2022-11-15T11:13:24;7.63;;;1.17;;
19965;SDS011;10144;50.874;4.762;2022-11-15T11:21:15;3.60;;;1.05;;
19965;SDS011;10144;50.874;4.762;2022-11-15T11:23:51;6.72;;;1.15;;
19965;SDS011;10144;50.874;4.762;2022-11-15T11:26:35;6.40;;;0.97;;
19965;SDS011;10144;50.874;4.762;2022-11-15T11:29:20;8.67;;;1.60;;
19965;SDS011;10144;50.874;4.762;2022-11-15T11:43:59;10.40;;;1.17;;
19965;SDS011;10144;50.874;4.762;2022-11-15T11:49:52;7.83;;;1.07;;
19965;SDS011;10144;50.874;4.762;2022-11-15T11:57:48;3.90;;;1.02;;
19965;SDS011;10144;50.874;4.762;2022-11-15T12:00:31;3.45;;;1.30;;
19965;SDS011;10144;50.874;4.762;2022-11-15T12:05:54;4.63;;;1.10;;
19965;SDS011;10144;50.874;4.762;2022-11-15T12:10:48;5.93;;;1.00;;
19965;SDS011;10144;50.874;4.762;2022-11-15T12:13:24;3.25;;;1.00;;
19965;SDS011;10144;50.874;4.762;2022-11-15T12:15:59;5.05;;;1.15;;
19965;SDS011;10144;50.874;4.762;2022-11-15T12:18:27;4.63;;;1.10;;
19965;SDS011;10144;50.874;4.762;2022-11-15T12:20:58;9.63;;;1.38;;
19965;SDS011;10144;50.874;4.762;2022-11-15T12:23:30;4.95;;;1.10;;
19965;SDS011;10144;50.874;4.762;2022-11-15T12:28:37;5.00;;;1.13;;
19965;SDS011;10144;50.874;4.762;2022-11-15T12:33:44;5.37;;;0.90;;
19965;SDS011;10144;50.874;4.762;2022-11-15T12:36:12;6.97;;;1.10;;
19965;SDS011;10144;50.874;4.762;2022-11-15T12:39:06;19.33;;;5.70;;
19965;SDS011;10144;50.874;4.762;2022-11-15T12:41:36;5.43;;;1.40;;
19965;SDS011;10144;50.874;4.762;2022-11-15T12:44:03;7.80;;;1.30;;
19965;SDS011;10144;50.874;4.762;2022-11-15T13:02:23;8.35;;;1.30;;
19965;SDS011;10144;50.874;4.762;2022-11-15T13:04:55;3.03;;;1.30;;
19965;SDS011;10144;50.874;4.762;2022-11-15T13:10:28;4.20;;;1.35;;
19965;SDS011;10144;50.874;4.762;2022-11-15T13:15:38;4.40;;;1.20;;
19965;SDS011;10144;50.874;4.762;2022-11-15T13:18:23;5.50;;;2.08;;
19965;SDS011;10144;50.874;4.762;2022-11-15T13:21:05;5.53;;;1.58;;
19965;SDS011;10144;50.874;4.762;2022-11-15T13:24:03;6.03;;;1.55;;
19965;SDS011;10144;50.874;4.762;2022-11-15T13:26:29;4.88;;;1.30;;
19965;SDS011;10144;50.874;4.762;2022-11-15T13:28:56;2.45;;;1.50;;
19965;SDS011;10144;50.874;4.762;2022-11-15T13:33:50;4.55;;;2.10;;
19965;SDS011;10144;50.874;4.762;2022-11-15T13:36:24;9.43;;;2.00;;
19965;SDS011;10144;50.874;4.762;2022-11-15T13:39:00;7.00;;;2.25;;
19965;SDS011;10144;50.874;4.762;2022-11-15T13:41:30;6.32;;;2.00;;
19965;SDS011;10144;50.874;4.762;2022-11-15T13:43:58;4.35;;;1.40;;
19965;SDS011;10144;50.874;4.762;2022-11-15T13:46:26;5.15;;;1.35;;
19965;SDS011;10144;50.874;4.762;2022-11-15T13:48:59;5.13;;;1.95;;
19965;SDS011;10144;50.874;4.762;2022-11-15T13:54:09;5.68;;;1.60;;
19965;SDS011;10144;50.874;4.762;2022-11-15T13:56:59;4.45;;;1.83;;
19965;SDS011;10144;50.874;4.762;2022-11-15T13:59:31;6.03;;;2.00;;
19965;SDS011;10144;50.874;4.762;2022-11-15T14:02:01;5.95;;;1.63;;
19965;SDS011;10144;50.874;4.762;2022-11-15T14:04:38;4.47;;;1.52;;
19965;SDS011;10144;50.874;4.762;2022-11-15T14:07:15;10.35;;;1.90;;
19965;SDS011;10144;50.874;4.762;2022-11-15T14:09:44;3.47;;;1.50;;
19965;SDS011;10144;50.874;4.762;2022-11-15T14:12:30;4.63;;;1.65;;
19965;SDS011;10144;50.874;4.762;2022-11-15T14:14:58;2.45;;;1.20;;
19965;SDS011;10144;50.874;4.762;2022-11-15T14:19:56;3.42;;;1.50;;
19965;SDS011;10144;50.874;4.762;2022-11-15T14:30:38;2.47;;;1.27;;
19965;SDS011;10144;50.874;4.762;2022-11-15T14:33:18;4.03;;;1.90;;
19965;SDS011;10144;50.874;4.762;2022-11-15T14:35:50;3.88;;;1.52;;
19965;SDS011;10144;50.874;4.762;2022-11-15T14:38:17;6.72;;;3.00;;
19965;SDS011;10144;50.874;4.762;2022-11-15T14:40:45;3.63;;;1.55;;
19965;SDS011;10144;50.874;4.762;2022-11-15T14:43:11;4.28;;;1.80;;
19965;SDS011;10144;50.874;4.762;2022-11-15T14:45:37;4.05;;;1.98;;
19965;SDS011;10144;50.874;4.762;2022-11-15T14:48:03;5.53;;;1.77;;
19965;SDS011;10144;50.874;4.762;2022-11-15T14:50:29;5.53;;;1.67;;
19965;SDS011;10144;50.874;4.762;2022-11-15T14:52:57;5.47;;;2.20;;
19965;SDS011;10144;50.874;4.762;2022-11-15T14:57:50;6.03;;;2.07;;
19965;SDS011;10144;50.874;4.762;2022-11-15T15:00:23;6.00;;;2.00;;
19965;SDS011;10144;50.874;4.762;2022-11-15T15:02:52;5.67;;;1.90;;
19965;SDS011;10144;50.874;4.762;2022-11-15T15:05:23;7.67;;;1.50;;
19965;SDS011;10144;50.874;4.762;2022-11-15T15:07:59;4.30;;;1.80;;
19965;SDS011;10144;50.874;4.762;2022-11-15T15:10:27;3.83;;;1.30;;
19965;SDS011;10144;50.874;4.762;2022-11-15T15:13:35;4.03;;;2.27;;
19965;SDS011;10144;50.874;4.762;2022-11-15T15:16:10;3.90;;;1.50;;
19965;SDS011;10144;50.874;4.762;2022-11-15T15:18:36;3.57;;;1.50;;
19965;SDS011;10144;50.874;4.762;2022-11-15T15:21:01;3.17;;;1.40;;
19965;SDS011;10144;50.874;4.762;2022-11-15T15:23:34;3.20;;;1.37;;
19965;SDS011;10144;50.874;4.762;2022-11-15T15:26:01;5.53;;;1.60;;
19965;SDS011;10144;50.874;4.762;2022-11-15T15:28:28;3.20;;;1.70;;
19965;SDS011;10144;50.874;4.762;2022-11-15T15:30:54;3.47;;;1.70;;
19965;SDS011;10144;50.874;4.762;2022-11-15T15:33:26;3.33;;;1.60;;
19965;SDS011;10144;50.874;4.762;2022-11-15T15:35:54;4.17;;;1.87;;
19965;SDS011;10144;50.874;4.762;2022-11-15T15:38:20;6.47;;;1.90;;
19965;SDS011;10144;50.874;4.762;2022-11-15T15:40:47;4.80;;;2.20;;
19965;SDS011;10144;50.874;4.762;2022-11-15T15:43:13;4.33;;;2.03;;
19965;SDS011;10144;50.874;4.762;2022-11-15T15:45:42;5.20;;;2.20;;
19965;SDS011;10144;50.874;4.762;2022-11-15T15:48:12;4.30;;;2.13;;
19965;SDS011;10144;50.874;4.762;2022-11-15T15:50:43;7.33;;;3.37;;
19965;SDS011;10144;50.874;4.762;2022-11-15T15:53:10;7.43;;;3.70;;
19965;SDS011;10144;50.874;4.762;2022-11-15T15:58:13;4.90;;;2.80;;
19965;SDS011;10144;50.874;4.762;2022-11-15T16:00:40;8.97;;;3.20;;
19965;SDS011;10144;50.874;4.762;2022-11-15T16:03:07;5.63;;;2.30;;
19965;SDS011;10144;50.874;4.762;2022-11-15T16:05:36;5.83;;;2.87;;
19965;SDS011;10144;50.874;4.762;2022-11-15T16:08:03;7.63;;;2.30;;
19965;SDS011;10144;50.874;4.762;2022-11-15T16:10:32;4.70;;;2.43;;
19965;SDS011;10144;50.874;4.762;2022-11-15T16:12:59;7.30;;;2.57;;
19965;SDS011;10144;50.874;4.762;2022-11-15T16:15:26;6.07;;;3.17;;
19965;SDS011;10144;50.874;4.762;2022-11-15T16:17:55;4.37;;;2.50;;
19965;SDS011;10144;50.874;4.762;2022-11-15T16:23:06;5.60;;;2.70;;
19965;SDS011;10144;50.874;4.762;2022-11-15T16:25:34;5.30;;;2.87;;
19965;SDS011;10144;50.874;4.762;2022-11-15T16:28:04;5.57;;;3.00;;
19965;SDS011;10144;50.874;4.762;2022-11-15T16:30:29;6.50;;;2.87;;
19965;SDS011;10144;50.874;4.762;2022-11-15T16:32:55;4.77;;;2.57;;
19965;SDS011;10144;50.874;4.762;2022-11-15T16:35:20;5.57;;;3.20;;
19965;SDS011;10144;50.874;4.762;2022-11-15T16:37:47;5.57;;;2.77;;
19965;SDS011;10144;50.874;4.762;2022-11-15T16:40:23;4.73;;;2.80;;
19965;SDS011;10144;50.874;4.762;2022-11-15T16:42:57;5.37;;;2.77;;
19965;SDS011;10144;50.874;4.762;2022-11-15T16:45:24;6.77;;;2.97;;
19965;SDS011;10144;50.874;4.762;2022-11-15T16:47:50;6.23;;;3.43;;
19965;SDS011;10144;50.874;4.762;2022-11-15T16:50:23;8.67;;;4.20;;
19965;SDS011;10144;50.874;4.762;2022-11-15T16:52:51;7.43;;;3.77;;
19965;SDS011;10144;50.874;4.762;2022-11-15T16:55:18;8.70;;;3.67;;
19965;SDS011;10144;50.874;4.762;2022-11-15T16:57:45;8.40;;;3.60;;
19965;SDS011;10144;50.874;4.762;2022-11-15T17:00:11;9.27;;;5.30;;
19965;SDS011;10144;50.874;4.762;2022-11-15T17:02:40;6.77;;;4.07;;
19965;SDS011;10144;50.874;4.762;2022-11-15T17:05:07;8.07;;;4.17;;
19965;SDS011;10144;50.874;4.762;2022-11-15T17:07:33;10.67;;;5.27;;
19965;SDS011;10144;50.874;4.762;2022-11-15T17:09:58;14.57;;;7.77;;